sensor_id;sensor_type;location;lat;lon;timestamp;temperature;humidity
45409;DHT22;31162;51.076;3.784;2023-07-28T00:01:35;19.10;99.90
45409;DHT22;31162;51.076;3.784;2023-07-28T00:04:00;19.10;99.90
45409;DHT22;31162;51.076;3.784;2023-07-28T00:06:28;19.20;99.90
45409;DHT22;31162;51.076;3.784;2023-07-28T00:08:53;19.10;99.90
45409;DHT22;31162;51.076;3.784;2023-07-28T00:11:19;19.10;99.90
45409;DHT22;31162;51.076;3.784;2023-07-28T00:13:44;19.20;99.90
45409;DHT22;31162;51.076;3.784;2023-07-28T00:16:10;19.20;99.90
45409;DHT22;31162;51.076;3.784;2023-07-28T00:18:36;19.30;99.90
45409;DHT22;31162;51.076;3.784;2023-07-28T00:21:02;19.30;99.90
45409;DHT22;31162;51.076;3.784;2023-07-28T00:23:28;19.30;99.90
45409;DHT22;31162;51.076;3.784;2023-07-28T00:25:54;19.30;99.90
45409;DHT22;31162;51.076;3.784;2023-07-28T00:28:19;19.30;99.90
45409;DHT22;31162;51.076;3.784;2023-07-28T00:30:49;19.30;99.90
45409;DHT22;31162;51.076;3.784;2023-07-28T00:33:15;19.30;99.90
45409;DHT22;31162;51.076;3.784;2023-07-28T00:35:41;19.30;99.90
45409;DHT22;31162;51.076;3.784;2023-07-28T00:38:06;19.30;99.90
45409;DHT22;31162;51.076;3.784;2023-07-28T00:40:32;19.30;99.90
45409;DHT22;31162;51.076;3.784;2023-07-28T00:42:58;19.30;99.90
45409;DHT22;31162;51.076;3.784;2023-07-28T00:45:23;19.30;99.90
45409;DHT22;31162;51.076;3.784;2023-07-28T00:47:49;19.30;99.90
45409;DHT22;31162;51.076;3.784;2023-07-28T00:50:15;19.30;99.90
45409;DHT22;31162;51.076;3.784;2023-07-28T00:52:42;19.30;99.90
45409;DHT22;31162;51.076;3.784;2023-07-28T00:55:08;19.30;99.90
45409;DHT22;31162;51.076;3.784;2023-07-28T00:57:34;19.30;99.90
45409;DHT22;31162;51.076;3.784;2023-07-28T01:00:00;19.40;99.90
45409;DHT22;31162;51.076;3.784;2023-07-28T01:02:26;19.40;99.90
45409;DHT22;31162;51.076;3.784;2023-07-28T01:04:52;19.40;99.90
45409;DHT22;31162;51.076;3.784;2023-07-28T01:10:10;19.40;99.90
45409;DHT22;31162;51.076;3.784;2023-07-28T01:12:36;19.40;99.90
45409;DHT22;31162;51.076;3.784;2023-07-28T01:15:02;19.40;99.90
45409;DHT22;31162;51.076;3.784;2023-07-28T01:17:28;19.40;99.90
45409;DHT22;31162;51.076;3.784;2023-07-28T01:19:54;19.40;99.90
45409;DHT22;31162;51.076;3.784;2023-07-28T01:22:46;19.40;99.90
45409;DHT22;31162;51.076;3.784;2023-07-28T01:27:52;19.50;99.90
45409;DHT22;31162;51.076;3.784;2023-07-28T01:30:19;19.50;99.90
45409;DHT22;31162;51.076;3.784;2023-07-28T01:32:47;19.60;99.90
45409;DHT22;31162;51.076;3.784;2023-07-28T01:35:13;19.50;99.90
45409;DHT22;31162;51.076;3.784;2023-07-28T01:37:39;19.50;99.90
45409;DHT22;31162;51.076;3.784;2023-07-28T01:40:05;19.50;99.90
45409;DHT22;31162;51.076;3.784;2023-07-28T01:42:30;19.50;99.90
45409;DHT22;31162;51.076;3.784;2023-07-28T01:44:56;19.50;99.90
45409;DHT22;31162;51.076;3.784;2023-07-28T01:47:22;19.50;99.90
45409;DHT22;31162;51.076;3.784;2023-07-28T01:49:47;19.50;99.90
45409;DHT22;31162;51.076;3.784;2023-07-28T01:52:13;19.50;99.90
45409;DHT22;31162;51.076;3.784;2023-07-28T01:54:38;19.50;99.90
45409;DHT22;31162;51.076;3.784;2023-07-28T01:57:04;19.40;99.90
45409;DHT22;31162;51.076;3.784;2023-07-28T01:59:30;19.50;99.90
45409;DHT22;31162;51.076;3.784;2023-07-28T02:01:56;19.60;99.90
45409;DHT22;31162;51.076;3.784;2023-07-28T02:04:23;19.50;99.90
45409;DHT22;31162;51.076;3.784;2023-07-28T02:06:49;19.60;99.90
45409;DHT22;31162;51.076;3.784;2023-07-28T02:09:14;19.60;99.90
45409;DHT22;31162;51.076;3.784;2023-07-28T02:11:40;19.60;99.90
45409;DHT22;31162;51.076;3.784;2023-07-28T02:14:06;19.60;99.90
45409;DHT22;31162;51.076;3.784;2023-07-28T02:16:33;19.60;99.90
45409;DHT22;31162;51.076;3.784;2023-07-28T02:18:59;19.50;99.90
45409;DHT22;31162;51.076;3.784;2023-07-28T02:21:25;19.60;99.90
45409;DHT22;31162;51.076;3.784;2023-07-28T02:23:50;19.60;99.90
45409;DHT22;31162;51.076;3.784;2023-07-28T02:26:18;19.70;99.90
45409;DHT22;31162;51.076;3.784;2023-07-28T02:28:44;19.70;99.90
45409;DHT22;31162;51.076;3.784;2023-07-28T02:31:10;19.60;99.90
45409;DHT22;31162;51.076;3.784;2023-07-28T02:33:35;19.60;99.90
45409;DHT22;31162;51.076;3.784;2023-07-28T02:36:03;19.60;99.90
45409;DHT22;31162;51.076;3.784;2023-07-28T02:38:29;19.70;99.90
45409;DHT22;31162;51.076;3.784;2023-07-28T02:40:55;19.60;99.90
45409;DHT22;31162;51.076;3.784;2023-07-28T02:43:20;19.60;99.90
45409;DHT22;31162;51.076;3.784;2023-07-28T02:45:57;19.60;99.90
45409;DHT22;31162;51.076;3.784;2023-07-28T02:48:23;19.60;99.90
45409;DHT22;31162;51.076;3.784;2023-07-28T02:50:52;19.60;99.90
45409;DHT22;31162;51.076;3.784;2023-07-28T02:53:18;19.60;99.90
45409;DHT22;31162;51.076;3.784;2023-07-28T02:55:45;19.60;99.90
45409;DHT22;31162;51.076;3.784;2023-07-28T02:58:12;19.60;99.90
45409;DHT22;31162;51.076;3.784;2023-07-28T03:00:38;19.60;99.90
45409;DHT22;31162;51.076;3.784;2023-07-28T03:03:05;19.60;99.90
45409;DHT22;31162;51.076;3.784;2023-07-28T03:05:31;19.60;99.90
45409;DHT22;31162;51.076;3.784;2023-07-28T03:07:57;19.70;99.90
45409;DHT22;31162;51.076;3.784;2023-07-28T03:10:23;19.70;99.90
45409;DHT22;31162;51.076;3.784;2023-07-28T03:12:49;19.70;99.90
45409;DHT22;31162;51.076;3.784;2023-07-28T03:15:15;19.60;99.90
45409;DHT22;31162;51.076;3.784;2023-07-28T03:17:40;19.60;99.90
45409;DHT22;31162;51.076;3.784;2023-07-28T03:20:06;19.60;99.90
45409;DHT22;31162;51.076;3.784;2023-07-28T03:22:32;19.60;99.90
45409;DHT22;31162;51.076;3.784;2023-07-28T03:24:58;19.60;99.90
45409;DHT22;31162;51.076;3.784;2023-07-28T03:27:23;19.70;99.90
45409;DHT22;31162;51.076;3.784;2023-07-28T03:29:50;19.70;99.90
45409;DHT22;31162;51.076;3.784;2023-07-28T03:32:16;19.70;99.90
45409;DHT22;31162;51.076;3.784;2023-07-28T03:34:41;19.70;99.90
45409;DHT22;31162;51.076;3.784;2023-07-28T03:37:07;19.70;99.90
45409;DHT22;31162;51.076;3.784;2023-07-28T03:39:33;19.70;99.90
45409;DHT22;31162;51.076;3.784;2023-07-28T03:41:58;19.70;99.90
45409;DHT22;31162;51.076;3.784;2023-07-28T03:44:24;19.70;99.90
45409;DHT22;31162;51.076;3.784;2023-07-28T03:46:50;19.80;99.90
45409;DHT22;31162;51.076;3.784;2023-07-28T03:49:15;19.80;99.90
45409;DHT22;31162;51.076;3.784;2023-07-28T03:51:41;19.70;99.90
45409;DHT22;31162;51.076;3.784;2023-07-28T03:54:07;19.60;99.90
45409;DHT22;31162;51.076;3.784;2023-07-28T03:56:32;19.60;99.90
45409;DHT22;31162;51.076;3.784;2023-07-28T03:59:00;19.60;99.90
45409;DHT22;31162;51.076;3.784;2023-07-28T04:01:26;19.60;99.90
45409;DHT22;31162;51.076;3.784;2023-07-28T04:03:51;19.60;99.90
45409;DHT22;31162;51.076;3.784;2023-07-28T04:06:17;19.60;99.90
45409;DHT22;31162;51.076;3.784;2023-07-28T04:08:43;19.60;99.90
45409;DHT22;31162;51.076;3.784;2023-07-28T04:11:08;19.60;99.90
45409;DHT22;31162;51.076;3.784;2023-07-28T04:13:35;19.60;99.90
45409;DHT22;31162;51.076;3.784;2023-07-28T04:16:01;19.70;99.90
45409;DHT22;31162;51.076;3.784;2023-07-28T04:18:26;19.70;99.90
45409;DHT22;31162;51.076;3.784;2023-07-28T04:20:53;19.80;99.90
45409;DHT22;31162;51.076;3.784;2023-07-28T04:23:21;19.80;99.90
45409;DHT22;31162;51.076;3.784;2023-07-28T04:25:46;19.70;99.90
45409;DHT22;31162;51.076;3.784;2023-07-28T04:28:12;19.70;99.90
45409;DHT22;31162;51.076;3.784;2023-07-28T04:30:38;19.70;99.90
45409;DHT22;31162;51.076;3.784;2023-07-28T04:33:03;19.80;99.90
45409;DHT22;31162;51.076;3.784;2023-07-28T04:35:30;19.80;99.90
45409;DHT22;31162;51.076;3.784;2023-07-28T04:37:56;19.80;99.90
45409;DHT22;31162;51.076;3.784;2023-07-28T04:40:21;19.80;99.90
45409;DHT22;31162;51.076;3.784;2023-07-28T04:42:47;19.80;99.90
45409;DHT22;31162;51.076;3.784;2023-07-28T04:45:14;19.80;99.90
45409;DHT22;31162;51.076;3.784;2023-07-28T04:47:42;19.80;99.90
45409;DHT22;31162;51.076;3.784;2023-07-28T04:50:08;19.80;99.90
45409;DHT22;31162;51.076;3.784;2023-07-28T04:52:37;19.90;99.90
45409;DHT22;31162;51.076;3.784;2023-07-28T04:55:02;19.80;99.90
45409;DHT22;31162;51.076;3.784;2023-07-28T04:57:28;19.90;99.90
45409;DHT22;31162;51.076;3.784;2023-07-28T04:59:54;20.00;99.90
45409;DHT22;31162;51.076;3.784;2023-07-28T05:02:19;20.00;99.90
45409;DHT22;31162;51.076;3.784;2023-07-28T05:04:45;20.00;99.90
45409;DHT22;31162;51.076;3.784;2023-07-28T05:07:10;19.90;99.90
45409;DHT22;31162;51.076;3.784;2023-07-28T05:09:36;20.00;99.90
45409;DHT22;31162;51.076;3.784;2023-07-28T05:12:02;20.00;99.90
45409;DHT22;31162;51.076;3.784;2023-07-28T05:14:29;19.90;99.90
45409;DHT22;31162;51.076;3.784;2023-07-28T05:16:54;20.00;99.90
45409;DHT22;31162;51.076;3.784;2023-07-28T05:19:20;20.00;99.90
45409;DHT22;31162;51.076;3.784;2023-07-28T05:21:45;20.10;99.90
45409;DHT22;31162;51.076;3.784;2023-07-28T05:24:11;20.00;99.90
45409;DHT22;31162;51.076;3.784;2023-07-28T05:26:37;20.20;99.90
45409;DHT22;31162;51.076;3.784;2023-07-28T05:29:03;20.30;99.90
45409;DHT22;31162;51.076;3.784;2023-07-28T05:31:28;20.30;99.90
45409;DHT22;31162;51.076;3.784;2023-07-28T05:33:54;20.30;99.90
45409;DHT22;31162;51.076;3.784;2023-07-28T05:36:20;20.30;99.90
45409;DHT22;31162;51.076;3.784;2023-07-28T05:38:45;20.30;99.90
45409;DHT22;31162;51.076;3.784;2023-07-28T05:41:11;20.30;99.90
45409;DHT22;31162;51.076;3.784;2023-07-28T05:43:36;20.40;99.90
45409;DHT22;31162;51.076;3.784;2023-07-28T05:46:02;20.40;99.90
45409;DHT22;31162;51.076;3.784;2023-07-28T05:48:28;20.40;99.90
45409;DHT22;31162;51.076;3.784;2023-07-28T05:50:54;20.60;99.90
45409;DHT22;31162;51.076;3.784;2023-07-28T05:53:20;20.90;99.90
45409;DHT22;31162;51.076;3.784;2023-07-28T05:55:46;21.10;99.90
45409;DHT22;31162;51.076;3.784;2023-07-28T05:58:13;21.20;99.90
45409;DHT22;31162;51.076;3.784;2023-07-28T06:00:43;21.30;99.90
45409;DHT22;31162;51.076;3.784;2023-07-28T06:03:12;21.20;99.90
45409;DHT22;31162;51.076;3.784;2023-07-28T06:05:39;21.10;99.90
45409;DHT22;31162;51.076;3.784;2023-07-28T06:08:05;21.20;99.90
45409;DHT22;31162;51.076;3.784;2023-07-28T06:10:31;21.40;99.90
45409;DHT22;31162;51.076;3.784;2023-07-28T06:12:57;21.30;99.90
45409;DHT22;31162;51.076;3.784;2023-07-28T06:15:23;21.50;99.90
45409;DHT22;31162;51.076;3.784;2023-07-28T06:17:49;21.60;99.90
45409;DHT22;31162;51.076;3.784;2023-07-28T06:20:15;21.50;99.90
45409;DHT22;31162;51.076;3.784;2023-07-28T06:22:40;21.30;99.90
45409;DHT22;31162;51.076;3.784;2023-07-28T06:25:06;21.20;99.90
45409;DHT22;31162;51.076;3.784;2023-07-28T06:27:32;21.10;99.90
45409;DHT22;31162;51.076;3.784;2023-07-28T06:29:58;21.10;99.90
45409;DHT22;31162;51.076;3.784;2023-07-28T06:32:24;21.00;99.90
45409;DHT22;31162;51.076;3.784;2023-07-28T06:34:50;21.00;99.90
45409;DHT22;31162;51.076;3.784;2023-07-28T06:37:17;21.10;99.90
45409;DHT22;31162;51.076;3.784;2023-07-28T06:39:42;21.20;99.90
45409;DHT22;31162;51.076;3.784;2023-07-28T06:42:08;21.20;99.90
45409;DHT22;31162;51.076;3.784;2023-07-28T06:44:34;21.40;99.90
45409;DHT22;31162;51.076;3.784;2023-07-28T06:46:59;21.60;99.90
45409;DHT22;31162;51.076;3.784;2023-07-28T06:49:25;21.90;99.90
45409;DHT22;31162;51.076;3.784;2023-07-28T06:51:51;22.00;99.90
45409;DHT22;31162;51.076;3.784;2023-07-28T06:54:16;22.10;99.90
45409;DHT22;31162;51.076;3.784;2023-07-28T06:56:42;22.20;99.90
45409;DHT22;31162;51.076;3.784;2023-07-28T06:59:08;22.30;99.90
45409;DHT22;31162;51.076;3.784;2023-07-28T07:01:34;22.20;99.90
45409;DHT22;31162;51.076;3.784;2023-07-28T07:03:59;22.20;99.90
45409;DHT22;31162;51.076;3.784;2023-07-28T07:06:26;22.40;99.90
45409;DHT22;31162;51.076;3.784;2023-07-28T07:08:52;22.80;99.90
45409;DHT22;31162;51.076;3.784;2023-07-28T07:11:18;23.30;99.90
45409;DHT22;31162;51.076;3.784;2023-07-28T07:13:43;23.40;99.90
45409;DHT22;31162;51.076;3.784;2023-07-28T07:16:16;23.60;99.90
45409;DHT22;31162;51.076;3.784;2023-07-28T07:18:43;23.80;99.90
45409;DHT22;31162;51.076;3.784;2023-07-28T07:21:09;24.10;99.90
45409;DHT22;31162;51.076;3.784;2023-07-28T07:23:35;24.30;99.90
45409;DHT22;31162;51.076;3.784;2023-07-28T07:26:01;24.00;99.90
45409;DHT22;31162;51.076;3.784;2023-07-28T07:28:27;23.80;99.90
45409;DHT22;31162;51.076;3.784;2023-07-28T07:30:54;23.70;99.90
45409;DHT22;31162;51.076;3.784;2023-07-28T07:33:20;23.70;99.90
45409;DHT22;31162;51.076;3.784;2023-07-28T07:35:46;23.90;99.90
45409;DHT22;31162;51.076;3.784;2023-07-28T07:38:13;24.80;99.90
45409;DHT22;31162;51.076;3.784;2023-07-28T07:40:39;25.80;99.90
45409;DHT22;31162;51.076;3.784;2023-07-28T07:43:06;26.50;99.90
45409;DHT22;31162;51.076;3.784;2023-07-28T07:45:32;26.80;99.90
45409;DHT22;31162;51.076;3.784;2023-07-28T07:47:58;27.10;99.90
45409;DHT22;31162;51.076;3.784;2023-07-28T07:50:24;27.20;99.90
45409;DHT22;31162;51.076;3.784;2023-07-28T07:52:52;26.70;99.90
45409;DHT22;31162;51.076;3.784;2023-07-28T07:55:18;26.40;99.90
45409;DHT22;31162;51.076;3.784;2023-07-28T07:57:43;26.10;99.90
45409;DHT22;31162;51.076;3.784;2023-07-28T08:00:10;25.90;99.90
45409;DHT22;31162;51.076;3.784;2023-07-28T08:02:36;25.70;99.90
45409;DHT22;31162;51.076;3.784;2023-07-28T08:05:02;25.40;99.90
45409;DHT22;31162;51.076;3.784;2023-07-28T08:07:28;25.40;99.90
45409;DHT22;31162;51.076;3.784;2023-07-28T08:09:54;25.40;99.90
45409;DHT22;31162;51.076;3.784;2023-07-28T08:12:20;25.40;99.90
45409;DHT22;31162;51.076;3.784;2023-07-28T08:14:45;25.30;99.90
45409;DHT22;31162;51.076;3.784;2023-07-28T08:17:11;25.40;99.90
45409;DHT22;31162;51.076;3.784;2023-07-28T08:19:37;25.60;99.90
45409;DHT22;31162;51.076;3.784;2023-07-28T08:22:03;26.20;99.90
45409;DHT22;31162;51.076;3.784;2023-07-28T08:24:29;26.90;99.90
45409;DHT22;31162;51.076;3.784;2023-07-28T08:26:55;27.40;99.90
45409;DHT22;31162;51.076;3.784;2023-07-28T08:29:21;27.20;99.90
45409;DHT22;31162;51.076;3.784;2023-07-28T08:31:49;26.70;99.90
45409;DHT22;31162;51.076;3.784;2023-07-28T08:34:15;26.40;99.90
45409;DHT22;31162;51.076;3.784;2023-07-28T08:36:43;26.20;99.90
45409;DHT22;31162;51.076;3.784;2023-07-28T08:39:09;26.00;99.90
45409;DHT22;31162;51.076;3.784;2023-07-28T08:41:35;25.90;99.90
45409;DHT22;31162;51.076;3.784;2023-07-28T08:44:01;25.90;99.90
45409;DHT22;31162;51.076;3.784;2023-07-28T08:46:27;26.00;99.90
45409;DHT22;31162;51.076;3.784;2023-07-28T08:48:53;25.70;99.90
45409;DHT22;31162;51.076;3.784;2023-07-28T08:51:18;25.30;99.90
45409;DHT22;31162;51.076;3.784;2023-07-28T08:53:49;25.00;99.90
45409;DHT22;31162;51.076;3.784;2023-07-28T08:56:15;24.90;99.90
45409;DHT22;31162;51.076;3.784;2023-07-28T08:58:40;24.80;99.90
45409;DHT22;31162;51.076;3.784;2023-07-28T09:01:06;24.80;99.90
45409;DHT22;31162;51.076;3.784;2023-07-28T09:03:31;25.10;99.90
45409;DHT22;31162;51.076;3.784;2023-07-28T09:06:02;25.30;99.90
45409;DHT22;31162;51.076;3.784;2023-07-28T09:08:30;25.20;99.90
45409;DHT22;31162;51.076;3.784;2023-07-28T09:11:02;25.00;99.90
45409;DHT22;31162;51.076;3.784;2023-07-28T09:13:36;24.70;99.90
45409;DHT22;31162;51.076;3.784;2023-07-28T09:16:03;24.60;99.90
45409;DHT22;31162;51.076;3.784;2023-07-28T09:18:29;24.40;99.90
45409;DHT22;31162;51.076;3.784;2023-07-28T09:20:55;24.30;99.90
45409;DHT22;31162;51.076;3.784;2023-07-28T09:23:28;24.10;99.90
45409;DHT22;31162;51.076;3.784;2023-07-28T09:25:59;24.20;99.90
45409;DHT22;31162;51.076;3.784;2023-07-28T09:28:49;24.90;99.90
45409;DHT22;31162;51.076;3.784;2023-07-28T09:31:14;25.90;99.90
45409;DHT22;31162;51.076;3.784;2023-07-28T09:33:40;26.80;99.90
45409;DHT22;31162;51.076;3.784;2023-07-28T09:36:13;27.30;99.90
45409;DHT22;31162;51.076;3.784;2023-07-28T09:38:40;27.10;99.90
45409;DHT22;31162;51.076;3.784;2023-07-28T09:41:10;27.00;99.90
45409;DHT22;31162;51.076;3.784;2023-07-28T09:43:41;27.10;99.90
45409;DHT22;31162;51.076;3.784;2023-07-28T09:46:09;27.50;99.90
45409;DHT22;31162;51.076;3.784;2023-07-28T09:48:38;27.80;99.90
45409;DHT22;31162;51.076;3.784;2023-07-28T09:51:12;27.50;99.90
45409;DHT22;31162;51.076;3.784;2023-07-28T09:53:56;27.20;99.90
45409;DHT22;31162;51.076;3.784;2023-07-28T09:56:27;26.90;99.90
45409;DHT22;31162;51.076;3.784;2023-07-28T09:58:54;26.40;99.90
45409;DHT22;31162;51.076;3.784;2023-07-28T10:01:21;26.10;99.90
45409;DHT22;31162;51.076;3.784;2023-07-28T10:03:49;25.50;99.90
45409;DHT22;31162;51.076;3.784;2023-07-28T10:06:15;25.00;99.90
45409;DHT22;31162;51.076;3.784;2023-07-28T10:08:42;24.80;99.90
45409;DHT22;31162;51.076;3.784;2023-07-28T10:11:09;24.80;99.90
45409;DHT22;31162;51.076;3.784;2023-07-28T10:13:43;24.70;99.90
45409;DHT22;31162;51.076;3.784;2023-07-28T10:16:12;24.70;99.90
45409;DHT22;31162;51.076;3.784;2023-07-28T10:18:40;25.40;99.90
45409;DHT22;31162;51.076;3.784;2023-07-28T10:21:10;25.70;99.90
45409;DHT22;31162;51.076;3.784;2023-07-28T10:23:39;25.60;99.90
45409;DHT22;31162;51.076;3.784;2023-07-28T10:26:05;25.50;99.90
45409;DHT22;31162;51.076;3.784;2023-07-28T10:28:38;25.50;99.90
45409;DHT22;31162;51.076;3.784;2023-07-28T10:31:08;25.80;99.90
45409;DHT22;31162;51.076;3.784;2023-07-28T10:33:45;26.40;99.90
45409;DHT22;31162;51.076;3.784;2023-07-28T10:38:59;27.00;99.90
45409;DHT22;31162;51.076;3.784;2023-07-28T10:41:25;26.80;99.90
45409;DHT22;31162;51.076;3.784;2023-07-28T10:43:51;26.50;99.90
45409;DHT22;31162;51.076;3.784;2023-07-28T10:46:18;26.20;99.90
45409;DHT22;31162;51.076;3.784;2023-07-28T10:48:47;25.90;99.90
45409;DHT22;31162;51.076;3.784;2023-07-28T10:51:26;25.90;99.90
45409;DHT22;31162;51.076;3.784;2023-07-28T10:53:57;26.30;99.90
45409;DHT22;31162;51.076;3.784;2023-07-28T10:56:23;27.10;99.90
45409;DHT22;31162;51.076;3.784;2023-07-28T10:59:00;27.60;99.90
45409;DHT22;31162;51.076;3.784;2023-07-28T11:01:33;27.70;99.90
45409;DHT22;31162;51.076;3.784;2023-07-28T11:04:10;27.30;99.90
45409;DHT22;31162;51.076;3.784;2023-07-28T11:06:38;26.80;99.90
45409;DHT22;31162;51.076;3.784;2023-07-28T11:09:06;26.40;99.90
45409;DHT22;31162;51.076;3.784;2023-07-28T11:11:32;26.00;99.90
45409;DHT22;31162;51.076;3.784;2023-07-28T11:13:58;25.90;99.90
45409;DHT22;31162;51.076;3.784;2023-07-28T11:16:26;25.70;99.90
45409;DHT22;31162;51.076;3.784;2023-07-28T11:18:55;25.90;99.90
45409;DHT22;31162;51.076;3.784;2023-07-28T11:21:23;26.00;99.90
45409;DHT22;31162;51.076;3.784;2023-07-28T11:23:49;25.90;99.90
45409;DHT22;31162;51.076;3.784;2023-07-28T11:26:16;25.60;99.90
45409;DHT22;31162;51.076;3.784;2023-07-28T11:28:46;25.70;99.90
45409;DHT22;31162;51.076;3.784;2023-07-28T11:31:12;25.60;99.90
45409;DHT22;31162;51.076;3.784;2023-07-28T11:33:39;25.30;99.90
45409;DHT22;31162;51.076;3.784;2023-07-28T11:36:05;24.90;99.90
45409;DHT22;31162;51.076;3.784;2023-07-28T11:38:32;24.30;99.90
45409;DHT22;31162;51.076;3.784;2023-07-28T11:40:59;24.10;99.90
45409;DHT22;31162;51.076;3.784;2023-07-28T11:43:25;23.90;99.90
45409;DHT22;31162;51.076;3.784;2023-07-28T11:45:51;23.90;99.90
45409;DHT22;31162;51.076;3.784;2023-07-28T11:48:17;23.90;99.90
45409;DHT22;31162;51.076;3.784;2023-07-28T11:50:43;23.90;99.90
45409;DHT22;31162;51.076;3.784;2023-07-28T11:53:10;23.90;99.90
45409;DHT22;31162;51.076;3.784;2023-07-28T11:55:37;24.10;99.90
45409;DHT22;31162;51.076;3.784;2023-07-28T11:58:05;24.50;99.90
45409;DHT22;31162;51.076;3.784;2023-07-28T12:00:32;25.00;99.90
45409;DHT22;31162;51.076;3.784;2023-07-28T12:03:03;25.70;99.90
45409;DHT22;31162;51.076;3.784;2023-07-28T12:05:29;26.70;99.90
45409;DHT22;31162;51.076;3.784;2023-07-28T12:07:55;27.70;99.90
45409;DHT22;31162;51.076;3.784;2023-07-28T12:10:20;27.80;99.90
45409;DHT22;31162;51.076;3.784;2023-07-28T12:12:47;27.10;99.90
45409;DHT22;31162;51.076;3.784;2023-07-28T12:15:23;26.60;99.90
45409;DHT22;31162;51.076;3.784;2023-07-28T12:20:38;24.50;99.90
45409;DHT22;31162;51.076;3.784;2023-07-28T12:23:05;23.90;99.90
45409;DHT22;31162;51.076;3.784;2023-07-28T12:25:32;23.60;99.90
45409;DHT22;31162;51.076;3.784;2023-07-28T12:27:58;23.60;99.90
45409;DHT22;31162;51.076;3.784;2023-07-28T12:30:24;24.10;99.90
45409;DHT22;31162;51.076;3.784;2023-07-28T12:32:49;25.40;99.90
45409;DHT22;31162;51.076;3.784;2023-07-28T12:35:15;26.80;99.90
45409;DHT22;31162;51.076;3.784;2023-07-28T12:37:41;27.80;99.90
45409;DHT22;31162;51.076;3.784;2023-07-28T12:40:07;28.50;99.90
45409;DHT22;31162;51.076;3.784;2023-07-28T12:42:34;28.90;99.90
45409;DHT22;31162;51.076;3.784;2023-07-28T12:44:59;29.10;99.90
45409;DHT22;31162;51.076;3.784;2023-07-28T12:47:25;29.00;99.90
45409;DHT22;31162;51.076;3.784;2023-07-28T12:49:51;29.00;99.90
45409;DHT22;31162;51.076;3.784;2023-07-28T12:52:17;29.00;99.90
45409;DHT22;31162;51.076;3.784;2023-07-28T12:54:42;29.10;99.90
45409;DHT22;31162;51.076;3.784;2023-07-28T12:57:09;29.30;99.90
45409;DHT22;31162;51.076;3.784;2023-07-28T12:59:37;29.30;99.90
45409;DHT22;31162;51.076;3.784;2023-07-28T13:02:03;29.50;99.90
45409;DHT22;31162;51.076;3.784;2023-07-28T13:04:29;29.40;99.90
45409;DHT22;31162;51.076;3.784;2023-07-28T13:06:57;29.50;99.90
45409;DHT22;31162;51.076;3.784;2023-07-28T13:09:22;29.10;99.90
45409;DHT22;31162;51.076;3.784;2023-07-28T13:11:48;28.60;99.90
45409;DHT22;31162;51.076;3.784;2023-07-28T13:14:14;28.20;99.90
45409;DHT22;31162;51.076;3.784;2023-07-28T13:16:39;27.70;99.90
45409;DHT22;31162;51.076;3.784;2023-07-28T13:19:05;27.40;99.90
45409;DHT22;31162;51.076;3.784;2023-07-28T13:21:31;26.90;99.90
45409;DHT22;31162;51.076;3.784;2023-07-28T13:23:57;26.60;99.90
45409;DHT22;31162;51.076;3.784;2023-07-28T13:26:22;26.60;99.90
45409;DHT22;31162;51.076;3.784;2023-07-28T13:28:48;27.00;99.90
45409;DHT22;31162;51.076;3.784;2023-07-28T13:31:17;27.70;99.90
45409;DHT22;31162;51.076;3.784;2023-07-28T13:33:44;28.20;99.90
45409;DHT22;31162;51.076;3.784;2023-07-28T13:36:10;28.50;99.90
45409;DHT22;31162;51.076;3.784;2023-07-28T13:38:36;28.90;99.90
45409;DHT22;31162;51.076;3.784;2023-07-28T13:41:04;29.20;99.90
45409;DHT22;31162;51.076;3.784;2023-07-28T13:43:31;28.90;99.90
45409;DHT22;31162;51.076;3.784;2023-07-28T13:45:57;29.00;99.90
45409;DHT22;31162;51.076;3.784;2023-07-28T13:48:23;29.20;99.90
45409;DHT22;31162;51.076;3.784;2023-07-28T13:50:49;29.30;99.90
45409;DHT22;31162;51.076;3.784;2023-07-28T13:53:17;29.30;99.90
45409;DHT22;31162;51.076;3.784;2023-07-28T13:55:43;29.30;99.90
45409;DHT22;31162;51.076;3.784;2023-07-28T13:58:08;29.40;99.90
45409;DHT22;31162;51.076;3.784;2023-07-28T14:00:34;29.60;99.90
45409;DHT22;31162;51.076;3.784;2023-07-28T14:02:59;29.60;99.90
45409;DHT22;31162;51.076;3.784;2023-07-28T14:05:25;29.70;99.90
45409;DHT22;31162;51.076;3.784;2023-07-28T14:07:51;29.80;99.90
45409;DHT22;31162;51.076;3.784;2023-07-28T14:10:16;29.90;99.90
45409;DHT22;31162;51.076;3.784;2023-07-28T14:12:42;30.20;99.90
45409;DHT22;31162;51.076;3.784;2023-07-28T14:15:08;30.60;99.90
45409;DHT22;31162;51.076;3.784;2023-07-28T14:17:33;31.00;99.90
45409;DHT22;31162;51.076;3.784;2023-07-28T14:19:59;31.50;99.90
45409;DHT22;31162;51.076;3.784;2023-07-28T14:22:25;31.30;99.90
45409;DHT22;31162;51.076;3.784;2023-07-28T14:24:51;30.90;99.90
45409;DHT22;31162;51.076;3.784;2023-07-28T14:27:16;30.80;99.90
45409;DHT22;31162;51.076;3.784;2023-07-28T14:29:42;30.70;99.90
45409;DHT22;31162;51.076;3.784;2023-07-28T14:32:08;30.50;99.90
45409;DHT22;31162;51.076;3.784;2023-07-28T14:34:34;30.20;99.90
45409;DHT22;31162;51.076;3.784;2023-07-28T14:37:05;29.90;99.90
45409;DHT22;31162;51.076;3.784;2023-07-28T14:39:31;30.00;99.90
45409;DHT22;31162;51.076;3.784;2023-07-28T14:41:57;30.20;99.90
45409;DHT22;31162;51.076;3.784;2023-07-28T14:44:23;30.20;99.90
45409;DHT22;31162;51.076;3.784;2023-07-28T14:46:48;29.80;99.90
45409;DHT22;31162;51.076;3.784;2023-07-28T14:49:14;29.30;99.90
45409;DHT22;31162;51.076;3.784;2023-07-28T14:51:40;29.10;99.90
45409;DHT22;31162;51.076;3.784;2023-07-28T14:54:06;29.00;99.90
45409;DHT22;31162;51.076;3.784;2023-07-28T14:56:31;28.90;99.90
45409;DHT22;31162;51.076;3.784;2023-07-28T14:58:58;28.80;99.90
45409;DHT22;31162;51.076;3.784;2023-07-28T15:01:26;28.70;99.90
45409;DHT22;31162;51.076;3.784;2023-07-28T15:03:52;28.80;99.90
45409;DHT22;31162;51.076;3.784;2023-07-28T15:06:18;28.80;99.90
45409;DHT22;31162;51.076;3.784;2023-07-28T15:08:43;28.60;99.90
45409;DHT22;31162;51.076;3.784;2023-07-28T15:11:09;28.70;99.90
45409;DHT22;31162;51.076;3.784;2023-07-28T15:13:35;29.20;99.90
45409;DHT22;31162;51.076;3.784;2023-07-28T15:16:01;29.50;99.90
45409;DHT22;31162;51.076;3.784;2023-07-28T15:18:26;29.10;99.90
45409;DHT22;31162;51.076;3.784;2023-07-28T15:20:52;28.90;99.90
45409;DHT22;31162;51.076;3.784;2023-07-28T15:23:22;28.50;99.90
45409;DHT22;31162;51.076;3.784;2023-07-28T15:25:48;28.30;99.90
45409;DHT22;31162;51.076;3.784;2023-07-28T15:28:15;28.30;99.90
45409;DHT22;31162;51.076;3.784;2023-07-28T15:30:42;28.40;99.90
45409;DHT22;31162;51.076;3.784;2023-07-28T15:33:09;28.70;99.90
45409;DHT22;31162;51.076;3.784;2023-07-28T15:35:37;28.80;99.90
45409;DHT22;31162;51.076;3.784;2023-07-28T15:38:07;28.70;99.90